NOZ4DY ENGM-EPKK
Flight info
| Callsign | NOZ4DY |
|---|---|
| Flight time | N/A |
| Altitude | 37000 |
| Route | OKSAT L996 KELIN DCT NEXIL DCT ROE DCT AMROR N983 POLON N133 NEGUV M66 KUKAM |
| Aircraft | B738/M-SDE2E3FGHIRWXY/LB1 |
Departure
| Time | 2026-05-07 13:09 |
|---|---|
| Airport | Oslo-Gardermoen International Airport (ENGM) |
Arrival
| Time | N/A |
|---|---|
| Airport | Kraków John Paul II International Airport (EPKK) |
| Time | Latitude | Longitude | Altitude | Speed | Heading |
|---|---|---|---|---|---|
| 2026-05-07 12:41 | 60.19670 | 11.09976 | 684 ft | 0 kts | 106° |
| 2026-05-07 12:57 | 60.19675 | 11.09941 | 676 ft | 4 kts | 106° |
| 2026-05-07 12:57 | 60.19682 | 11.09893 | 679 ft | 1 kts | 106° |
| 2026-05-07 12:58 | 60.19682 | 11.09892 | 679 ft | 5 kts | 106° |
| 2026-05-07 13:02 | 60.19683 | 11.09900 | 684 ft | 2 kts | 85° |
| 2026-05-07 13:03 | 60.19695 | 11.09907 | 678 ft | 3 kts | 2° |
| 2026-05-07 13:03 | 60.19748 | 11.09874 | 681 ft | 9 kts | 339° |
| 2026-05-07 13:03 | 60.19796 | 11.09842 | 678 ft | 9 kts | 346° |
| 2026-05-07 13:03 | 60.19857 | 11.09852 | 683 ft | 9 kts | 15° |
| 2026-05-07 13:04 | 60.19920 | 11.09890 | 681 ft | 9 kts | 17° |
| 2026-05-07 13:04 | 60.19984 | 11.09928 | 684 ft | 9 kts | 17° |
| 2026-05-07 13:04 | 60.20033 | 11.10000 | 682 ft | 9 kts | 71° |
| 2026-05-07 13:04 | 60.20021 | 11.10180 | 683 ft | 15 kts | 105° |
| 2026-05-07 13:05 | 60.19995 | 11.10373 | 678 ft | 14 kts | 105° |
| 2026-05-07 13:05 | 60.19969 | 11.10555 | 684 ft | 13 kts | 107° |
| 2026-05-07 13:05 | 60.19943 | 11.10730 | 683 ft | 13 kts | 107° |
| 2026-05-07 13:05 | 60.19917 | 11.10907 | 683 ft | 13 kts | 105° |
| 2026-05-07 13:06 | 60.19892 | 11.11092 | 681 ft | 15 kts | 105° |
| 2026-05-07 13:06 | 60.19864 | 11.11291 | 680 ft | 15 kts | 105° |
| 2026-05-07 13:06 | 60.19858 | 11.11516 | 682 ft | 15 kts | 50° |
| 2026-05-07 13:06 | 60.19955 | 11.11591 | 681 ft | 15 kts | 18° |
| 2026-05-07 13:07 | 60.20052 | 11.11646 | 679 ft | 14 kts | 14° |
| 2026-05-07 13:07 | 60.20145 | 11.11701 | 679 ft | 13 kts | 21° |
| 2026-05-07 13:07 | 60.20165 | 11.11864 | 682 ft | 13 kts | 107° |
| 2026-05-07 13:07 | 60.20140 | 11.12040 | 682 ft | 13 kts | 105° |
| 2026-05-07 13:08 | 60.20100 | 11.12195 | 685 ft | 13 kts | 135° |
| 2026-05-07 13:08 | 60.20047 | 11.12205 | 687 ft | 7 kts | 194° |
| 2026-05-07 13:08 | 60.19931 | 11.12139 | 687 ft | 39 kts | 195° |
| 2026-05-07 13:08 | 60.19425 | 11.11847 | 682 ft | 111 kts | 195° |
| 2026-05-07 13:09 | 60.18478 | 11.11302 | 688 ft | 169 kts | 197° |
| 2026-05-07 13:09 | 60.17280 | 11.10620 | 1202 ft | 183 kts | 198° |
| 2026-05-07 13:09 | 60.16116 | 11.09951 | 2396 ft | 165 kts | 197° |
| 2026-05-07 13:09 | 60.15000 | 11.09316 | 3244 ft | 176 kts | 197° |
| 2026-05-07 13:10 | 60.13679 | 11.09094 | 3555 ft | 209 kts | 167° |
| 2026-05-07 13:10 | 60.12309 | 11.10523 | 3875 ft | 237 kts | 141° |
| 2026-05-07 13:10 | 60.11108 | 11.12853 | 4534 ft | 244 kts | 134° |
| 2026-05-07 13:10 | 60.09950 | 11.15374 | 5321 ft | 246 kts | 133° |
| 2026-05-07 13:11 | 60.08781 | 11.17903 | 6091 ft | 249 kts | 133° |
| 2026-05-07 13:11 | 60.07575 | 11.20483 | 6667 ft | 264 kts | 134° |
| 2026-05-07 13:11 | 60.06273 | 11.23220 | 7342 ft | 275 kts | 137° |
| 2026-05-07 13:11 | 60.04696 | 11.25434 | 8167 ft | 279 kts | 152° |
| 2026-05-07 13:12 | 60.02951 | 11.27205 | 9011 ft | 285 kts | 156° |
| 2026-05-07 13:12 | 60.01141 | 11.28912 | 9831 ft | 290 kts | 156° |
| 2026-05-07 13:12 | 59.99290 | 11.30652 | 10522 ft | 300 kts | 157° |
| 2026-05-07 13:12 | 59.97327 | 11.32516 | 10746 ft | 326 kts | 156° |
| 2026-05-07 13:13 | 59.95203 | 11.34564 | 10937 ft | 351 kts | 156° |
| 2026-05-07 13:13 | 59.92941 | 11.36777 | 11251 ft | 369 kts | 155° |
| 2026-05-07 13:13 | 59.90661 | 11.39036 | 11941 ft | 375 kts | 155° |
| 2026-05-07 13:13 | 59.88319 | 11.41363 | 12728 ft | 378 kts | 156° |
| 2026-05-07 13:14 | 59.85958 | 11.43716 | 13483 ft | 381 kts | 156° |
| 2026-05-07 13:14 | 59.83570 | 11.46092 | 14169 ft | 386 kts | 156° |
| 2026-05-07 13:14 | 59.81149 | 11.48497 | 14780 ft | 391 kts | 156° |
| 2026-05-07 13:14 | 59.78695 | 11.50929 | 15423 ft | 396 kts | 156° |
| 2026-05-07 13:15 | 59.76216 | 11.53386 | 16069 ft | 400 kts | 157° |
| 2026-05-07 13:15 | 59.73712 | 11.55867 | 16722 ft | 404 kts | 157° |
| 2026-05-07 13:15 | 59.71185 | 11.58364 | 17317 ft | 409 kts | 157° |
| 2026-05-07 13:15 | 59.68618 | 11.60896 | 17912 ft | 414 kts | 158° |
| 2026-05-07 13:16 | 59.66022 | 11.63453 | 18504 ft | 418 kts | 158° |
| 2026-05-07 13:16 | 59.63396 | 11.66035 | 19011 ft | 422 kts | 158° |
| 2026-05-07 13:16 | 59.60751 | 11.68631 | 19525 ft | 427 kts | 158° |
| 2026-05-07 13:16 | 59.58083 | 11.71244 | 19997 ft | 431 kts | 158° |
| 2026-05-07 13:17 | 59.55390 | 11.73878 | 20519 ft | 433 kts | 158° |
| 2026-05-07 13:17 | 59.52667 | 11.76536 | 21024 ft | 437 kts | 158° |
| 2026-05-07 13:17 | 59.49930 | 11.79204 | 21487 ft | 441 kts | 158° |
| 2026-05-07 13:17 | 59.47169 | 11.81890 | 21957 ft | 445 kts | 159° |
| 2026-05-07 13:18 | 59.44378 | 11.84602 | 22422 ft | 449 kts | 159° |
| 2026-05-07 13:18 | 59.41562 | 11.87333 | 22874 ft | 453 kts | 159° |
| 2026-05-07 13:18 | 59.38765 | 11.90038 | 23338 ft | 456 kts | 159° |
| 2026-05-07 13:18 | 59.35890 | 11.92683 | 23744 ft | 456 kts | 164° |
| 2026-05-07 13:19 | 59.32870 | 11.94462 | 24081 ft | 452 kts | 174° |
| 2026-05-07 13:19 | 59.29773 | 11.95322 | 24455 ft | 448 kts | 182° |
| 2026-05-07 13:19 | 59.26677 | 11.95256 | 24816 ft | 444 kts | 189° |
| 2026-05-07 13:19 | 59.23583 | 11.94857 | 25166 ft | 447 kts | 190° |
| 2026-05-07 13:20 | 59.20467 | 11.94442 | 25492 ft | 450 kts | 189° |
| 2026-05-07 13:20 | 59.17332 | 11.94057 | 25829 ft | 453 kts | 189° |
| 2026-05-07 13:20 | 59.14170 | 11.93700 | 26166 ft | 456 kts | 189° |
| 2026-05-07 13:20 | 59.12071 | 11.93476 | 26382 ft | 457 kts | 189° |
| 2026-05-07 13:21 | 59.08880 | 11.93144 | 26695 ft | 460 kts | 189° |
| 2026-05-07 13:21 | 59.05669 | 11.92811 | 27011 ft | 462 kts | 189° |
| 2026-05-07 13:21 | 59.02451 | 11.92475 | 27327 ft | 465 kts | 189° |
| 2026-05-07 13:21 | 58.99215 | 11.92121 | 27620 ft | 467 kts | 189° |
| 2026-05-07 13:22 | 58.95960 | 11.91754 | 27925 ft | 469 kts | 189° |
| 2026-05-07 13:22 | 58.92689 | 11.91385 | 28207 ft | 471 kts | 189° |
| 2026-05-07 13:22 | 58.89404 | 11.91017 | 28514 ft | 473 kts | 189° |
| 2026-05-07 13:22 | 58.86120 | 11.90653 | 28913 ft | 472 kts | 189° |
| 2026-05-07 13:23 | 58.82841 | 11.90295 | 29359 ft | 471 kts | 188° |
| 2026-05-07 13:23 | 58.79550 | 11.90340 | 29764 ft | 477 kts | 180° |
| 2026-05-07 13:23 | 58.76246 | 11.91183 | 30156 ft | 479 kts | 176° |
| 2026-05-07 13:23 | 58.72986 | 11.92159 | 30492 ft | 479 kts | 176° |
| 2026-05-07 13:24 | 58.69655 | 11.93159 | 30828 ft | 478 kts | 176° |
| 2026-05-07 13:24 | 58.66410 | 11.94095 | 31136 ft | 478 kts | 177° |
| 2026-05-07 13:24 | 58.63120 | 11.95004 | 31426 ft | 478 kts | 177° |
| 2026-05-07 13:24 | 58.59830 | 11.95892 | 31746 ft | 477 kts | 177° |
| 2026-05-07 13:25 | 58.56549 | 11.96773 | 32093 ft | 476 kts | 177° |
| 2026-05-07 13:25 | 58.53273 | 11.97654 | 32414 ft | 475 kts | 177° |
| 2026-05-07 13:25 | 58.49994 | 11.98539 | 32720 ft | 475 kts | 177° |
| 2026-05-07 13:25 | 58.46718 | 11.99422 | 33018 ft | 475 kts | 177° |
| 2026-05-07 13:26 | 58.43443 | 12.00305 | 33332 ft | 475 kts | 177° |
| 2026-05-07 13:26 | 58.40178 | 12.01183 | 33637 ft | 474 kts | 177° |
| 2026-05-07 13:26 | 58.36914 | 12.02059 | 33921 ft | 474 kts | 177° |
| 2026-05-07 13:26 | 58.33648 | 12.02932 | 34164 ft | 474 kts | 177° |
| 2026-05-07 13:27 | 58.30381 | 12.03805 | 34416 ft | 473 kts | 176° |
| 2026-05-07 13:27 | 58.27130 | 12.04683 | 34698 ft | 472 kts | 175° |
| 2026-05-07 13:27 | 58.23923 | 12.06084 | 34977 ft | 475 kts | 167° |
| 2026-05-07 13:27 | 58.20837 | 12.08410 | 35224 ft | 479 kts | 158° |
| 2026-05-07 13:28 | 58.17864 | 12.11189 | 35480 ft | 479 kts | 157° |
| 2026-05-07 13:28 | 58.14874 | 12.14047 | 35738 ft | 478 kts | 157° |
| 2026-05-07 13:28 | 58.11905 | 12.16886 | 36007 ft | 476 kts | 157° |
| 2026-05-07 13:28 | 58.09004 | 12.19636 | 36292 ft | 474 kts | 157° |
| 2026-05-07 13:29 | 58.05993 | 12.22460 | 36568 ft | 473 kts | 157° |
| 2026-05-07 13:29 | 58.03040 | 12.25205 | 36802 ft | 473 kts | 157° |
| 2026-05-07 13:29 | 58.00132 | 12.27893 | 37051 ft | 471 kts | 158° |
| 2026-05-07 13:29 | 57.97180 | 12.30605 | 37074 ft | 474 kts | 158° |
| 2026-05-07 13:30 | 57.91249 | 12.36032 | 37065 ft | 472 kts | 158° |
| 2026-05-07 13:30 | 57.85359 | 12.41407 | 37065 ft | 469 kts | 158° |
| 2026-05-07 13:31 | 57.79510 | 12.46728 | 37064 ft | 466 kts | 158° |
| 2026-05-07 13:31 | 57.73687 | 12.52005 | 37076 ft | 464 kts | 158° |
| 2026-05-07 13:32 | 57.67868 | 12.57260 | 37064 ft | 464 kts | 157° |
| 2026-05-07 13:32 | 57.62058 | 12.62489 | 37068 ft | 466 kts | 157° |
| 2026-05-07 13:33 | 57.56176 | 12.67762 | 37076 ft | 468 kts | 157° |
| 2026-05-07 13:33 | 57.50305 | 12.73008 | 37084 ft | 469 kts | 157° |
| 2026-05-07 13:34 | 57.41446 | 12.80886 | 37075 ft | 471 kts | 157° |
| 2026-05-07 13:35 | 57.35549 | 12.86109 | 37071 ft | 472 kts | 157° |
| 2026-05-07 13:35 | 57.29571 | 12.91387 | 37067 ft | 473 kts | 157° |
| 2026-05-07 13:36 | 57.23629 | 12.96612 | 37071 ft | 472 kts | 157° |
| 2026-05-07 13:36 | 57.17694 | 13.01812 | 37064 ft | 472 kts | 157° |
| 2026-05-07 13:37 | 57.11804 | 13.06952 | 37068 ft | 471 kts | 157° |
| 2026-05-07 13:37 | 57.05876 | 13.12108 | 37071 ft | 470 kts | 157° |
| 2026-05-07 13:38 | 56.99965 | 13.17233 | 37067 ft | 469 kts | 157° |
| 2026-05-07 13:38 | 56.94062 | 13.22331 | 37069 ft | 468 kts | 157° |
| 2026-05-07 13:39 | 56.88166 | 13.27406 | 37074 ft | 467 kts | 157° |
| 2026-05-07 13:39 | 56.82287 | 13.32451 | 37080 ft | 466 kts | 157° |
| 2026-05-07 13:40 | 56.76460 | 13.37429 | 37077 ft | 465 kts | 157° |
| 2026-05-07 13:40 | 56.70609 | 13.42415 | 37075 ft | 464 kts | 157° |
| 2026-05-07 13:41 | 56.64763 | 13.47376 | 37071 ft | 463 kts | 157° |
| 2026-05-07 13:41 | 56.58934 | 13.52306 | 37072 ft | 462 kts | 157° |
| 2026-05-07 13:42 | 56.53107 | 13.57218 | 37068 ft | 462 kts | 157° |
| 2026-05-07 13:42 | 56.47277 | 13.62118 | 37071 ft | 462 kts | 157° |
| 2026-05-07 13:43 | 56.41450 | 13.66998 | 37065 ft | 461 kts | 157° |
| 2026-05-07 13:43 | 56.35589 | 13.71891 | 37066 ft | 461 kts | 157° |
| 2026-05-07 13:44 | 56.29390 | 13.77052 | 37068 ft | 460 kts | 157° |
| 2026-05-07 13:44 | 56.23909 | 13.81610 | 37067 ft | 460 kts | 157° |
| 2026-05-07 13:45 | 56.18141 | 13.86393 | 37072 ft | 459 kts | 157° |
| 2026-05-07 13:45 | 56.12297 | 13.91225 | 37069 ft | 459 kts | 157° |
| 2026-05-07 13:46 | 56.06544 | 13.95969 | 37081 ft | 458 kts | 158° |
| 2026-05-07 13:46 | 56.00745 | 14.00729 | 37070 ft | 458 kts | 158° |
| 2026-05-07 13:47 | 55.94957 | 14.05466 | 37073 ft | 457 kts | 158° |
| 2026-05-07 13:47 | 55.89164 | 14.10189 | 37083 ft | 457 kts | 158° |
| 2026-05-07 13:48 | 55.83370 | 14.14901 | 37074 ft | 457 kts | 158° |
| 2026-05-07 13:48 | 55.77583 | 14.19591 | 37078 ft | 457 kts | 158° |
| 2026-05-07 13:49 | 55.71797 | 14.24266 | 37078 ft | 456 kts | 158° |
| 2026-05-07 13:49 | 55.66022 | 14.28914 | 37086 ft | 455 kts | 158° |
| 2026-05-07 13:50 | 55.60341 | 14.33474 | 37096 ft | 455 kts | 158° |
| 2026-05-07 13:50 | 55.54565 | 14.38094 | 37101 ft | 455 kts | 158° |
| 2026-05-07 13:51 | 55.48793 | 14.42697 | 37095 ft | 454 kts | 158° |
| 2026-05-07 13:51 | 55.43069 | 14.47247 | 37100 ft | 454 kts | 158° |
| 2026-05-07 13:52 | 55.37306 | 14.51812 | 37094 ft | 454 kts | 158° |
| 2026-05-07 13:52 | 55.31549 | 14.56359 | 37099 ft | 453 kts | 158° |
| 2026-05-07 13:53 | 55.25798 | 14.60886 | 37099 ft | 452 kts | 158° |
| 2026-05-07 13:53 | 55.20052 | 14.65395 | 37102 ft | 452 kts | 158° |
| 2026-05-07 13:54 | 55.14297 | 14.69900 | 37101 ft | 451 kts | 158° |